Time;durP1;ratioP1;P1;durP2;ratioP2;P2;SDS_P1;SDS_P2;PMS_P1;PMS_P2;Temp;Humidity;BMP_temperature;BMP_pressure;BME280_temperature;BME280_humidity;BME280_pressure;Samples;Min_cycle;Max_cycle;Signal;HPM_P1;HPM_P2
2023/01/24 00:01:23;;;;;;;30.38;12.55;;;1.40;99.90;;;;;;5080261;28;25124;-79
2023/01/24 00:03:51;;;;;;;26.90;11.45;;;1.40;99.90;;;;;;5098302;28;25114;-78
2023/01/24 00:06:19;;;;;;;26.80;10.32;;;1.40;99.90;;;;;;5098296;28;25064;-78
2023/01/24 00:08:46;;;;;;;27.60;11.88;;;1.40;99.90;;;;;;5080084;28;25056;-79
2023/01/24 00:11:14;;;;;;;34.97;13.48;;;1.40;99.90;;;;;;5098305;28;25110;-79
2023/01/24 00:13:41;;;;;;;30.02;13.43;;;1.40;99.90;;;;;;5079927;28;25064;-79
2023/01/24 00:16:17;;;;;;;28.92;11.68;;;1.40;99.90;;;;;;5097884;28;25103;-79
2023/01/24 00:18:45;;;;;;;26.02;11.75;;;1.30;99.90;;;;;;5097865;28;25067;-78
2023/01/24 00:21:19;;;;;;;29.85;11.95;;;1.30;99.90;;;;;;5097820;28;25110;-78
2023/01/24 00:23:51;;;;;;;25.27;11.38;;;1.30;99.90;;;;;;5097974;28;25136;-79
2023/01/24 00:26:20;;;;;;;31.73;13.52;;;1.30;99.90;;;;;;5098047;28;25128;-79
2023/01/24 00:28:49;;;;;;;32.97;13.05;;;1.30;99.90;;;;;;5097925;28;25066;-78
2023/01/24 00:31:17;;;;;;;31.15;12.80;;;1.30;99.90;;;;;;5098091;28;25143;-79
2023/01/24 00:33:45;;;;;;;34.50;12.80;;;1.30;99.90;;;;;;5097829;28;25048;-78
2023/01/24 00:36:14;;;;;;;31.55;12.88;;;1.30;99.90;;;;;;5097834;28;25061;-79
2023/01/24 00:38:41;;;;;;;33.45;11.55;;;1.30;99.90;;;;;;5097494;28;25057;-78
2023/01/24 00:41:08;;;;;;;31.50;12.20;;;1.30;99.90;;;;;;5079593;28;25067;-79
2023/01/24 00:43:36;;;;;;;28.50;11.15;;;1.30;99.90;;;;;;5097247;28;25054;-78
2023/01/24 00:46:08;;;;;;;31.13;11.38;;;1.30;99.90;;;;;;5097342;28;25084;-79
2023/01/24 00:48:36;;;;;;;29.02;9.30;;;1.30;99.90;;;;;;5097803;28;25084;-79
2023/01/24 00:51:04;;;;;;;22.00;9.65;;;1.30;99.90;;;;;;5097929;28;25072;-78
2023/01/24 00:53:31;;;;;;;23.80;10.45;;;1.30;99.90;;;;;;5079173;28;25055;-78
2023/01/24 00:55:58;;;;;;;20.65;9.00;;;1.30;99.90;;;;;;5097461;28;25060;-79
2023/01/24 00:58:26;;;;;;;27.77;11.05;;;1.30;99.90;;;;;;5097097;28;25067;-78
2023/01/24 01:01:00;;;;;;;25.13;10.90;;;1.30;99.90;;;;;;5079224;28;25067;-79
2023/01/24 01:03:28;;;;;;;26.35;10.02;;;1.30;99.90;;;;;;5096778;28;25104;-78
2023/01/24 01:06:01;;;;;;;25.13;10.30;;;1.30;99.90;;;;;;5096274;28;25114;-79
2023/01/24 01:08:29;;;;;;;24.33;10.15;;;1.30;99.90;;;;;;5097178;28;25104;-79
2023/01/24 01:10:56;;;;;;;24.80;10.05;;;1.30;99.90;;;;;;5097096;28;25061;-78
2023/01/24 01:13:24;;;;;;;23.60;10.00;;;1.30;99.90;;;;;;5097182;28;25099;-78
2023/01/24 01:15:51;;;;;;;24.20;10.18;;;1.30;99.90;;;;;;5096834;28;25056;-78
2023/01/24 01:18:19;;;;;;;20.13;10.25;;;1.30;99.90;;;;;;5096761;28;25073;-78
2023/01/24 01:20:53;;;;;;;20.50;9.13;;;1.30;99.90;;;;;;5096750;28;25094;-78
2023/01/24 01:23:20;;;;;;;20.73;9.02;;;1.30;99.90;;;;;;5078724;28;25076;-78
2023/01/24 01:25:47;;;;;;;22.70;10.02;;;1.30;99.90;;;;;;5096895;28;25110;-79
2023/01/24 01:28:15;;;;;;;22.88;10.20;;;1.30;99.90;;;;;;5096914;28;25059;-78
2023/01/24 01:30:43;;;;;;;20.48;9.50;;;1.30;99.90;;;;;;5078670;28;25053;-78
2023/01/24 01:33:10;;;;;;;21.25;9.40;;;1.30;99.90;;;;;;5096884;28;25074;-78
2023/01/24 01:35:37;;;;;;;22.98;10.15;;;1.30;99.90;;;;;;5097078;28;25109;-79
2023/01/24 01:38:05;;;;;;;18.33;9.27;;;1.30;99.90;;;;;;5096516;28;25107;-78
2023/01/24 01:40:33;;;;;;;22.75;9.20;;;1.30;99.90;;;;;;5078903;28;25107;-78
2023/01/24 01:43:00;;;;;;;20.88;8.98;;;1.30;99.90;;;;;;5096492;28;25081;-79
2023/01/24 01:45:37;;;;;;;19.40;7.95;;;1.30;99.90;;;;;;5096685;28;25058;-79
2023/01/24 01:48:14;;;;;;;18.38;8.32;;;1.30;99.90;;;;;;5096575;28;25058;-78
2023/01/24 01:51:03;;;;;;;18.70;8.07;;;1.30;99.90;;;;;;5078514;28;25077;-79
2023/01/24 01:53:41;;;;;;;19.40;8.40;;;1.30;99.90;;;;;;5096680;28;25071;-79
2023/01/24 01:56:26;;;;;;;21.55;8.52;;;1.30;99.90;;;;;;5096504;28;25064;-78
2023/01/24 01:58:58;;;;;;;17.38;8.27;;;1.30;99.90;;;;;;5078437;28;25060;-78
2023/01/24 02:01:26;;;;;;;20.02;7.82;;;1.30;99.90;;;;;;5078340;28;25048;-79
2023/01/24 02:04:05;;;;;;;17.02;8.68;;;1.30;99.90;;;;;;5078297;28;25058;-78
2023/01/24 02:06:45;;;;;;;20.80;8.48;;;1.30;99.90;;;;;;5096447;28;25110;-78
2023/01/24 02:09:14;;;;;;;17.08;6.95;;;1.30;99.90;;;;;;5096514;28;25069;-78
2023/01/24 02:11:43;;;;;;;13.70;6.45;;;1.30;99.90;;;;;;5096259;28;25088;-79
2023/01/24 02:17:03;;;;;;;11.65;5.78;;;1.30;99.90;;;;;;5099793;28;25073;-79
2023/01/24 02:19:37;;;;;;;11.65;5.35;;;1.40;99.90;;;;;;5100215;28;25117;-78
2023/01/24 02:22:32;;;;;;;12.75;5.10;;;1.40;99.90;;;;;;5100706;28;25111;-78
2023/01/24 02:25:15;;;;;;;15.40;6.00;;;1.40;99.90;;;;;;5099987;28;25088;-78
2023/01/24 02:27:42;;;;;;;17.23;7.70;;;1.40;99.90;;;;;;5100469;28;25100;-78
2023/01/24 02:30:11;;;;;;;19.70;8.23;;;1.40;99.90;;;;;;5099975;28;25057;-78
2023/01/24 02:32:38;;;;;;;20.48;7.90;;;1.40;99.90;;;;;;5099956;28;25090;-79
2023/01/24 02:35:06;;;;;;;14.77;7.53;;;1.40;99.90;;;;;;5099944;28;25118;-77
2023/01/24 02:37:36;;;;;;;11.43;5.70;;;1.40;99.90;;;;;;5100017;28;25055;-79
2023/01/24 02:40:09;;;;;;;11.38;5.28;;;1.40;99.90;;;;;;5078168;28;25120;-78
2023/01/24 02:42:38;;;;;;;12.15;5.13;;;1.40;99.90;;;;;;5078411;28;25228;-78
2023/01/24 02:45:19;;;;;;;11.38;5.13;;;1.40;99.90;;;;;;5078240;28;25079;-78
2023/01/24 02:47:51;;;;;;;10.70;5.45;;;1.40;99.90;;;;;;5079762;28;25094;-78
2023/01/24 02:50:21;;;;;;;10.05;4.65;;;1.40;99.90;;;;;;5079565;28;25116;-78
2023/01/24 02:58:05;;;;;;;11.18;5.82;;;1.40;99.90;;;;;;5079468;28;25050;-79
2023/01/24 02:58:23;;;;;;;13.57;5.95;;;1.40;99.90;;;;;;5078867;28;25068;-79
2023/01/24 03:00:50;;;;;;;14.38;5.57;;;1.50;99.90;;;;;;5078106;28;25193;-78
2023/01/24 03:03:17;;;;;;;9.40;5.20;;;1.50;99.90;;;;;;5079277;28;25077;-79
2023/01/24 03:05:57;;;;;;;11.45;5.28;;;1.40;99.90;;;;;;5078931;28;25072;-79
2023/01/24 03:08:31;;;;;;;11.15;5.22;;;1.50;99.90;;;;;;5078955;28;25103;-79
2023/01/24 03:10:59;;;;;;;12.65;5.45;;;1.50;99.90;;;;;;5077892;28;25122;-78
2023/01/24 03:35:33;;;;;;;11.40;5.47;;;1.50;99.90;;;;;;5078801;28;25118;-78
2023/01/24 03:40:46;;;;;;;11.97;5.10;;;1.50;99.90;;;;;;5078664;28;25141;-79
2023/01/24 03:43:13;;;;;;;11.68;5.03;;;1.50;99.90;;;;;;5077517;28;25120;-78
2023/01/24 03:45:40;;;;;;;13.18;5.63;;;1.50;99.90;;;;;;5077179;28;25144;-79
2023/01/24 03:48:12;;;;;;;11.98;5.13;;;1.50;99.90;;;;;;5078261;28;25126;-79
2023/01/24 03:53:31;;;;;;;13.00;5.50;;;1.40;99.90;;;;;;5078122;28;25060;-79
2023/01/24 03:56:00;;;;;;;11.85;5.40;;;1.50;99.90;;;;;;5078340;28;25047;-79
2023/01/24 03:58:29;;;;;;;11.68;5.50;;;1.40;99.90;;;;;;5076953;28;25069;-79
2023/01/24 04:00:57;;;;;;;12.93;5.40;;;1.40;99.90;;;;;;5078374;28;25095;-78
2023/01/24 04:03:24;;;;;;;12.57;5.25;;;1.40;99.90;;;;;;5078448;28;25124;-79
2023/01/24 04:05:51;;;;;;;11.32;5.47;;;1.40;99.90;;;;;;5078083;28;25104;-78
2023/01/24 04:08:19;;;;;;;10.35;5.45;;;1.40;99.90;;;;;;5078046;28;25060;-79
2023/01/24 04:10:46;;;;;;;10.23;5.00;;;1.40;99.90;;;;;;5078258;28;25063;-79
2023/01/24 04:13:14;;;;;;;11.98;6.38;;;1.40;99.90;;;;;;5078001;28;25060;-78
2023/01/24 04:15:42;;;;;;;12.20;5.80;;;1.40;99.90;;;;;;5077553;28;25049;-78
2023/01/24 04:18:11;;;;;;;12.63;5.93;;;1.40;99.90;;;;;;5077910;28;25107;-79
2023/01/24 04:20:39;;;;;;;10.68;5.38;;;1.40;99.90;;;;;;5078025;28;25090;-78
2023/01/24 04:23:08;;;;;;;10.85;5.10;;;1.40;99.90;;;;;;5077497;28;25105;-78
2023/01/24 04:25:35;;;;;;;12.52;5.55;;;1.40;99.90;;;;;;5077730;28;25054;-79
2023/01/24 04:28:03;;;;;;;15.32;6.25;;;1.40;99.90;;;;;;5077701;28;25082;-78
2023/01/24 04:30:30;;;;;;;12.45;5.72;;;1.40;99.90;;;;;;5077536;28;25071;-78
2023/01/24 04:32:57;;;;;;;13.40;5.88;;;1.40;99.90;;;;;;5076265;28;25112;-78
2023/01/24 04:35:26;;;;;;;14.10;6.18;;;1.40;99.90;;;;;;5077578;28;25079;-79
2023/01/24 04:37:58;;;;;;;12.00;5.63;;;1.40;99.90;;;;;;5076143;28;25110;-78
2023/01/24 04:40:25;;;;;;;9.50;5.18;;;1.40;99.90;;;;;;5096055;28;25114;-79
2023/01/24 04:42:52;;;;;;;13.48;6.47;;;1.40;99.90;;;;;;5079405;28;25112;-79
2023/01/24 04:45:21;;;;;;;12.52;6.07;;;1.40;99.90;;;;;;5097253;28;25111;-78
2023/01/24 04:47:48;;;;;;;12.25;6.20;;;1.40;99.90;;;;;;5079335;28;25111;-78
2023/01/24 04:50:17;;;;;;;11.77;6.13;;;1.40;99.90;;;;;;5097276;28;25055;-79
2023/01/24 04:52:44;;;;;;;11.88;5.70;;;1.40;99.90;;;;;;5097525;28;25077;-78
2023/01/24 04:55:11;;;;;;;13.57;6.30;;;1.40;99.90;;;;;;5079219;28;25061;-78
2023/01/24 04:57:38;;;;;;;12.65;5.88;;;1.40;99.90;;;;;;5097147;28;25102;-78
2023/01/24 05:00:08;;;;;;;13.65;6.20;;;1.40;99.90;;;;;;5096343;28;25071;-79
2023/01/24 05:02:37;;;;;;;12.68;5.80;;;1.40;99.90;;;;;;5097127;28;25128;-79
2023/01/24 05:05:06;;;;;;;11.85;5.75;;;1.40;99.90;;;;;;5079178;28;25068;-79
2023/01/24 05:07:33;;;;;;;12.77;6.53;;;1.40;99.90;;;;;;5079242;28;25065;-79
2023/01/24 05:10:01;;;;;;;12.23;6.85;;;1.40;99.90;;;;;;5078624;28;25067;-79
2023/01/24 05:12:28;;;;;;;11.50;5.70;;;1.40;99.90;;;;;;5095971;28;25063;-79
2023/01/24 05:14:55;;;;;;;11.80;6.20;;;1.40;99.90;;;;;;5078908;28;25108;-79
2023/01/24 05:17:23;;;;;;;12.82;5.70;;;1.40;99.90;;;;;;5079047;28;25116;-78
2023/01/24 05:19:50;;;;;;;14.43;6.45;;;1.40;99.90;;;;;;5096785;28;25117;-78
2023/01/24 05:22:18;;;;;;;11.98;6.00;;;1.40;99.90;;;;;;5096774;28;25068;-78
2023/01/24 05:24:45;;;;;;;15.10;6.30;;;1.40;99.90;;;;;;5096634;28;25067;-79
2023/01/24 05:27:12;;;;;;;14.80;7.25;;;1.40;99.90;;;;;;5078926;28;25129;-79
2023/01/24 05:29:39;;;;;;;13.65;6.82;;;1.30;99.90;;;;;;5096660;28;25121;-79
2023/01/24 05:32:07;;;;;;;15.85;8.10;;;1.30;99.90;;;;;;5096940;28;25050;-79
2023/01/24 05:34:34;;;;;;;15.35;6.68;;;1.40;99.90;;;;;;5096538;28;25073;-79
2023/01/24 05:37:01;;;;;;;12.70;6.28;;;1.30;99.90;;;;;;5097064;28;25083;-79
2023/01/24 05:39:29;;;;;;;13.20;6.78;;;1.30;99.90;;;;;;5075178;28;25108;-79
2023/01/24 05:41:56;;;;;;;16.10;7.28;;;1.30;99.90;;;;;;5076360;28;25114;-79
2023/01/24 05:44:24;;;;;;;12.95;6.65;;;1.30;99.90;;;;;;5075100;28;25067;-79
2023/01/24 05:46:52;;;;;;;16.15;7.03;;;1.30;99.90;;;;;;5075351;28;25114;-79
2023/01/24 05:49:19;;;;;;;13.90;6.55;;;1.30;99.90;;;;;;5075120;28;25023;-79
2023/01/24 05:51:47;;;;;;;12.48;6.18;;;1.30;99.90;;;;;;5081769;28;25064;-79
2023/01/24 05:54:14;;;;;;;14.32;6.82;;;1.30;99.90;;;;;;5082862;28;25072;-79
2023/01/24 05:56:42;;;;;;;16.38;7.43;;;1.30;99.90;;;;;;5082981;28;25066;-79
2023/01/24 05:59:10;;;;;;;15.77;8.00;;;1.30;99.90;;;;;;5081779;28;25075;-79
2023/01/24 06:01:38;;;;;;;14.18;7.45;;;1.30;99.90;;;;;;5082812;28;25118;-79
2023/01/24 06:04:05;;;;;;;13.18;6.70;;;1.30;99.90;;;;;;5082953;28;25051;-79
2023/01/24 06:06:32;;;;;;;13.85;7.22;;;1.30;99.90;;;;;;5081723;28;25051;-79
2023/01/24 06:09:00;;;;;;;12.13;6.78;;;1.30;99.90;;;;;;5083017;28;25129;-79
2023/01/24 06:11:28;;;;;;;13.85;6.60;;;1.30;99.90;;;;;;5082705;28;25064;-79
2023/01/24 06:13:56;;;;;;;13.32;6.85;;;1.20;99.90;;;;;;5081612;28;25076;-79
2023/01/24 06:16:25;;;;;;;15.75;6.80;;;1.30;99.90;;;;;;5082945;28;25052;-83
2023/01/24 06:18:54;;;;;;;13.48;6.95;;;1.30;99.90;;;;;;5081692;28;25054;-82
2023/01/24 06:21:41;;;;;;;13.23;6.80;;;1.20;99.90;;;;;;5082750;28;25104;-80
2023/01/24 06:24:21;;;;;;;12.90;6.22;;;1.30;99.90;;;;;;5082487;28;25102;-82
2023/01/24 06:26:50;;;;;;;10.85;5.72;;;1.20;99.90;;;;;;5082585;28;25066;-73
2023/01/24 06:29:19;;;;;;;10.70;5.78;;;1.30;99.90;;;;;;5082543;28;25117;-81
2023/01/24 06:32:14;;;;;;;14.25;6.68;;;1.30;99.90;;;;;;5083010;28;25074;-80
2023/01/24 06:35:18;;;;;;;12.40;5.90;;;1.30;99.90;;;;;;5082501;28;25053;-80
2023/01/24 06:37:51;;;;;;;11.85;6.30;;;1.30;99.90;;;;;;5082738;28;25052;-80
2023/01/24 06:40:22;;;;;;;10.48;5.47;;;1.30;99.90;;;;;;5097903;28;25067;-80
2023/01/24 06:42:51;;;;;;;11.38;5.70;;;1.30;99.90;;;;;;5084781;28;25066;-81
2023/01/24 06:45:19;;;;;;;12.70;6.13;;;1.30;99.90;;;;;;5084581;28;25071;-80
2023/01/24 06:47:46;;;;;;;12.15;5.82;;;1.30;99.90;;;;;;5084702;28;25068;-81
2023/01/24 06:50:22;;;;;;;9.75;5.15;;;1.30;99.90;;;;;;5102644;28;25067;-81
2023/01/24 06:52:50;;;;;;;11.43;5.55;;;1.30;99.90;;;;;;5102969;28;25118;-80
2023/01/24 06:55:18;;;;;;;12.63;6.38;;;1.20;99.90;;;;;;5102612;28;25106;-80
2023/01/24 06:57:47;;;;;;;11.75;5.35;;;1.30;99.90;;;;;;5102616;28;25056;-81
2023/01/24 07:00:16;;;;;;;8.85;5.30;;;1.30;99.90;;;;;;5102507;28;25115;-81
2023/01/24 07:02:43;;;;;;;11.32;5.22;;;1.30;99.90;;;;;;5081574;28;25075;-81
2023/01/24 07:05:10;;;;;;;12.57;5.03;;;1.30;99.90;;;;;;5099237;28;25137;-81
2023/01/24 07:07:38;;;;;;;10.50;4.90;;;1.30;99.90;;;;;;5097526;28;25098;-81
2023/01/24 07:10:06;;;;;;;8.50;4.75;;;1.30;99.90;;;;;;5098518;28;25064;-80
2023/01/24 07:12:33;;;;;;;12.68;6.28;;;1.30;99.90;;;;;;5099447;28;25049;-80
2023/01/24 07:15:01;;;;;;;10.18;5.32;;;1.20;99.90;;;;;;5099188;28;25112;-77
2023/01/24 07:17:29;;;;;;;13.88;6.60;;;1.20;99.90;;;;;;5099415;28;25066;-81
2023/01/24 07:19:57;;;;;;;11.35;5.80;;;1.20;99.90;;;;;;5081085;28;25119;-81
2023/01/24 07:22:25;;;;;;;10.73;5.78;;;1.20;99.90;;;;;;5080966;28;25087;-81
2023/01/24 07:24:53;;;;;;;11.38;5.65;;;1.20;99.90;;;;;;5080938;28;25131;-81
2023/01/24 07:27:21;;;;;;;10.50;5.55;;;1.30;99.90;;;;;;5080933;28;25103;-82
2023/01/24 07:29:48;;;;;;;12.25;5.45;;;1.20;99.90;;;;;;5080191;28;25060;-82
2023/01/24 07:32:16;;;;;;;11.90;5.95;;;1.20;99.90;;;;;;5080861;28;25067;-81
2023/01/24 07:34:43;;;;;;;9.40;5.00;;;1.20;99.90;;;;;;5098818;28;25080;-82
2023/01/24 07:37:10;;;;;;;11.90;5.75;;;1.20;99.90;;;;;;5080896;28;25094;-81
2023/01/24 07:39:38;;;;;;;13.57;6.38;;;1.20;99.90;;;;;;5098772;28;25060;-82
2023/01/24 07:42:05;;;;;;;12.93;6.55;;;1.20;99.90;;;;;;5078950;28;25067;-82
2023/01/24 07:44:33;;;;;;;14.57;6.47;;;1.20;99.90;;;;;;5098882;28;25062;-83
2023/01/24 07:47:00;;;;;;;11.50;5.85;;;1.20;99.90;;;;;;5080797;28;25108;-79
2023/01/24 07:49:27;;;;;;;14.30;7.00;;;1.20;99.90;;;;;;5098764;28;25071;-82
2023/01/24 07:51:55;;;;;;;11.18;5.88;;;1.20;99.90;;;;;;5080591;28;25110;-79
2023/01/24 07:54:22;;;;;;;12.57;6.03;;;1.20;99.90;;;;;;5080542;28;25101;-81
2023/01/24 07:56:49;;;;;;;12.18;6.10;;;1.30;99.90;;;;;;5080558;28;25116;-80
2023/01/24 07:59:17;;;;;;;11.73;5.93;;;1.20;99.90;;;;;;5080330;28;25034;-80
2023/01/24 08:01:45;;;;;;;11.98;5.88;;;1.30;99.90;;;;;;5098596;28;25057;-79
2023/01/24 08:04:13;;;;;;;13.43;7.85;;;1.30;99.90;;;;;;5080165;28;25127;-78
2023/01/24 08:09:27;;;;;;;15.85;7.47;;;1.30;99.90;;;;;;5098196;28;25116;-77
2023/01/24 08:11:54;;;;;;;14.30;7.28;;;1.30;99.90;;;;;;5098046;28;25089;-76
2023/01/24 08:14:22;;;;;;;14.82;7.05;;;1.30;99.90;;;;;;5097664;28;25159;-77
2023/01/24 08:16:51;;;;;;;13.20;6.57;;;1.30;99.90;;;;;;5098232;28;25112;-80
2023/01/24 08:19:19;;;;;;;11.13;5.88;;;1.40;99.90;;;;;;5079990;28;25090;-81
2023/01/24 08:21:45;;;;;;;13.65;6.25;;;1.40;99.90;;;;;;5097286;28;25064;-80
2023/01/24 08:24:14;;;;;;;11.98;5.72;;;1.40;99.90;;;;;;5097049;28;25114;-82
2023/01/24 08:26:41;;;;;;;8.95;4.63;;;1.40;99.90;;;;;;5079823;28;25066;-81
2023/01/24 08:29:09;;;;;;;12.15;5.68;;;1.40;99.90;;;;;;5079715;28;25085;-83
2023/01/24 08:31:36;;;;;;;10.82;5.13;;;1.40;99.90;;;;;;5079709;28;25135;-83
2023/01/24 08:34:03;;;;;;;11.15;5.38;;;1.40;99.90;;;;;;5097991;28;25136;-84
2023/01/24 08:36:31;;;;;;;9.55;5.05;;;1.40;99.90;;;;;;5079688;28;25107;-85
2023/01/24 08:38:58;;;;;;;11.80;7.10;;;1.50;99.90;;;;;;5076026;28;25107;-74
2023/01/24 08:41:26;;;;;;;12.25;5.80;;;1.50;99.90;;;;;;5077203;28;25080;-74
2023/01/24 08:43:53;;;;;;;13.70;6.22;;;1.50;99.90;;;;;;5077052;28;25064;-74
2023/01/24 08:46:22;;;;;;;11.35;5.88;;;1.50;99.90;;;;;;5077372;28;25082;-74
2023/01/24 08:48:49;;;;;;;12.07;5.78;;;1.50;99.90;;;;;;5077072;28;25083;-74
2023/01/24 08:51:16;;;;;;;10.77;5.47;;;1.50;99.90;;;;;;5077029;28;25053;-75
2023/01/24 08:53:44;;;;;;;12.93;7.15;;;1.50;99.90;;;;;;5076983;28;25055;-74
2023/01/24 08:56:12;;;;;;;10.00;5.63;;;1.50;99.90;;;;;;5075834;28;25099;-74
2023/01/24 08:58:40;;;;;;;8.45;5.13;;;1.60;99.90;;;;;;5076759;28;25063;-74
2023/01/24 09:01:09;;;;;;;9.48;5.20;;;1.60;99.90;;;;;;5075881;28;25061;-74
2023/01/24 09:03:37;;;;;;;9.90;5.50;;;1.60;99.90;;;;;;5077294;28;25104;-74
2023/01/24 09:06:06;;;;;;;13.32;6.18;;;1.60;99.90;;;;;;5076967;28;25143;-74
2023/01/24 09:08:33;;;;;;;11.23;5.45;;;1.60;99.90;;;;;;5076712;28;25068;-74
2023/01/24 09:11:01;;;;;;;9.55;4.72;;;1.60;99.90;;;;;;5076698;28;25076;-74
2023/01/24 09:13:29;;;;;;;11.75;5.93;;;1.70;99.90;;;;;;5075585;28;25060;-74
2023/01/24 09:15:58;;;;;;;10.88;5.72;;;1.70;99.90;;;;;;5075553;28;25102;-74
2023/01/24 09:18:26;;;;;;;12.38;5.57;;;1.70;99.90;;;;;;5075498;28;25131;-74
2023/01/24 09:20:53;;;;;;;11.13;6.07;;;1.70;99.90;;;;;;5076817;28;25085;-74
2023/01/24 09:23:20;;;;;;;11.30;5.18;;;1.70;99.90;;;;;;5075443;28;25069;-74
2023/01/24 09:25:52;;;;;;;8.93;4.95;;;1.70;99.90;;;;;;5074641;28;25059;-74
2023/01/24 09:28:20;;;;;;;8.85;4.55;;;1.70;99.90;;;;;;5076967;28;25054;-74
2023/01/24 09:30:51;;;;;;;9.30;4.80;;;1.80;99.90;;;;;;5076376;28;25100;-74
2023/01/24 09:33:19;;;;;;;11.65;5.32;;;1.70;99.90;;;;;;5076658;28;25156;-74
2023/01/24 09:35:59;;;;;;;10.82;5.72;;;1.70;99.90;;;;;;5076282;28;25059;-75
2023/01/24 09:38:30;;;;;;;11.48;5.72;;;1.80;99.90;;;;;;5075351;28;25071;-75
2023/01/24 09:41:27;;;;;;;10.02;5.45;;;1.80;99.90;;;;;;5076554;28;25052;-74
2023/01/24 09:44:07;;;;;;;11.35;5.35;;;1.80;99.90;;;;;;5076229;28;25134;-74
2023/01/24 09:46:49;;;;;;;13.18;5.95;;;1.80;99.90;;;;;;5076313;28;25063;-75
2023/01/24 09:49:48;;;;;;;13.27;6.68;;;1.80;99.90;;;;;;5076237;28;25099;-74
2023/01/24 09:52:28;;;;;;;16.45;7.18;;;1.80;99.90;;;;;;5076517;28;25100;-74
2023/01/24 09:55:13;;;;;;;14.65;6.95;;;1.80;99.90;;;;;;5076358;28;25115;-74
2023/01/24 09:58:04;;;;;;;11.07;5.97;;;1.80;99.90;;;;;;5076929;28;25114;-74
2023/01/24 10:00:38;;;;;;;12.98;6.53;;;1.80;99.90;;;;;;5073065;28;25098;-74
2023/01/24 10:03:25;;;;;;;13.02;6.95;;;1.80;99.90;;;;;;5056099;28;25092;-75
2023/01/24 10:06:01;;;;;;;13.85;7.03;;;1.80;99.90;;;;;;5056161;28;25065;-74
2023/01/24 10:08:52;;;;;;;14.70;6.47;;;1.80;99.90;;;;;;5056309;28;25052;-74
2023/01/24 10:11:56;;;;;;;13.82;7.05;;;1.80;99.90;;;;;;5056892;28;25085;-75
2023/01/24 10:14:41;;;;;;;13.52;6.03;;;1.80;99.90;;;;;;5056228;28;25069;-73
2023/01/24 10:17:23;;;;;;;14.15;7.22;;;1.80;99.90;;;;;;5056668;28;25116;-75
2023/01/24 10:20:16;;;;;;;14.00;7.22;;;1.80;99.90;;;;;;5056165;28;25109;-73
2023/01/24 10:23:02;;;;;;;16.50;7.57;;;1.90;99.90;;;;;;5055914;28;25052;-73
2023/01/24 10:25:55;;;;;;;13.18;6.65;;;1.90;99.90;;;;;;5056248;28;25119;-74
2023/01/24 10:28:34;;;;;;;15.50;6.72;;;1.90;99.90;;;;;;5055810;28;25071;-74
2023/01/24 10:31:43;;;;;;;14.38;7.32;;;2.00;99.90;;;;;;5056135;28;25058;-74
2023/01/24 10:34:34;;;;;;;13.10;6.10;;;2.00;99.90;;;;;;5025462;28;25087;-74
2023/01/24 10:37:08;;;;;;;15.13;7.63;;;2.00;99.90;;;;;;5077912;28;25069;-74
2023/01/24 10:39:35;;;;;;;15.48;7.43;;;2.00;99.90;;;;;;5067415;28;25108;-74
2023/01/24 10:42:13;;;;;;;14.07;7.50;;;2.00;99.90;;;;;;5078487;28;25089;-74
2023/01/24 10:44:41;;;;;;;11.73;6.90;;;2.10;99.90;;;;;;5078597;28;25070;-74
2023/01/24 10:47:26;;;;;;;14.07;7.90;;;2.00;99.90;;;;;;5079421;28;25100;-74
2023/01/24 10:49:59;;;;;;;14.88;7.63;;;2.00;99.90;;;;;;5079658;28;25128;-75
2023/01/24 10:52:27;;;;;;;12.00;6.75;;;2.00;99.90;;;;;;5079614;28;25058;-74
2023/01/24 10:55:01;;;;;;;16.33;7.10;;;2.00;99.90;;;;;;5079319;28;25144;-74
2023/01/24 10:57:49;;;;;;;14.02;7.88;;;2.00;99.90;;;;;;5079625;28;25068;-74
2023/01/24 11:00:35;;;;;;;14.40;7.15;;;2.00;99.90;;;;;;5079198;28;25101;-74
2023/01/24 11:03:17;;;;;;;12.05;6.45;;;2.10;99.90;;;;;;5078046;28;25091;-74
2023/01/24 11:05:53;;;;;;;14.02;8.32;;;2.10;99.90;;;;;;5079062;28;25058;-74
2023/01/24 11:08:33;;;;;;;14.02;7.13;;;2.10;99.90;;;;;;5079041;28;25052;-74
2023/01/24 11:11:01;;;;;;;15.00;7.75;;;2.10;99.90;;;;;;5078064;28;25072;-74
2023/01/24 11:13:38;;;;;;;14.32;7.00;;;2.10;99.90;;;;;;5079194;28;25094;-74
2023/01/24 11:16:16;;;;;;;15.05;7.28;;;2.10;99.90;;;;;;5078143;28;25067;-74
2023/01/24 11:18:59;;;;;;;16.48;8.27;;;2.10;99.90;;;;;;5079392;28;25049;-73
2023/01/24 11:21:28;;;;;;;15.60;8.05;;;2.10;99.90;;;;;;5079019;28;25055;-75
2023/01/24 11:24:15;;;;;;;14.38;7.25;;;2.10;99.90;;;;;;5078935;28;25095;-75
2023/01/24 11:27:04;;;;;;;14.55;6.95;;;2.10;99.90;;;;;;5078759;28;25100;-74
2023/01/24 11:29:35;;;;;;;14.85;7.57;;;2.20;99.90;;;;;;5078652;28;25062;-74
2023/01/24 11:32:32;;;;;;;22.52;10.00;;;2.20;99.90;;;;;;5078843;28;25068;-74
2023/01/24 11:35:04;;;;;;;;;;;2.20;99.90;;;;;;5079252;28;25106;-73
2023/01/24 11:38:01;;;;;;;18.83;7.78;;;2.20;99.90;;;;;;5078917;28;24075;-74
2023/01/24 11:40:47;;;;;;;13.68;7.45;;;2.10;99.90;;;;;;5094949;28;25099;-76
2023/01/24 11:43:20;;;;;;;17.25;7.93;;;2.20;99.90;;;;;;5098907;28;25055;-74
2023/01/24 11:46:12;;;;;;;15.48;7.50;;;2.20;99.90;;;;;;5098827;28;25121;-74
2023/01/24 11:49:04;;;;;;;18.00;8.55;;;2.10;99.90;;;;;;5098135;28;25068;-77
2023/01/24 11:51:48;;;;;;;15.30;7.80;;;2.10;99.90;;;;;;5098970;28;25075;-74
2023/01/24 11:54:34;;;;;;;16.42;7.93;;;2.10;99.90;;;;;;5098439;28;25055;-75
2023/01/24 11:57:08;;;;;;;15.52;7.53;;;2.10;99.90;;;;;;5080541;28;25076;-74
2023/01/24 11:59:54;;;;;;;16.05;7.63;;;2.10;99.90;;;;;;5098341;28;25063;-75
2023/01/24 12:02:58;;;;;;;13.02;7.45;;;2.10;99.90;;;;;;5098730;28;25074;-75
2023/01/24 12:05:39;;;;;;;15.07;7.20;;;2.10;99.90;;;;;;5098392;28;25072;-74
2023/01/24 12:08:13;;;;;;;14.32;7.50;;;2.10;99.90;;;;;;5098362;28;25084;-75
2023/01/24 12:11:06;;;;;;;18.38;8.43;;;2.10;99.90;;;;;;5098814;28;25065;-75
2023/01/24 12:14:19;;;;;;;14.65;7.60;;;2.10;99.90;;;;;;5080023;28;25072;-75
2023/01/24 12:17:23;;;;;;;14.23;7.75;;;2.10;99.90;;;;;;5097977;28;25046;-75
2023/01/24 12:20:19;;;;;;;14.95;7.63;;;2.10;99.90;;;;;;5097848;28;25125;-75
2023/01/24 12:22:48;;;;;;;19.90;7.90;;;2.10;99.90;;;;;;5097896;28;25109;-75
2023/01/24 12:25:39;;;;;;;17.05;8.00;;;2.10;99.90;;;;;;5097738;28;25063;-75
2023/01/24 12:28:14;;;;;;;16.73;8.68;;;2.10;99.90;;;;;;5097829;28;25099;-75
2023/01/24 12:30:53;;;;;;;17.05;7.60;;;2.10;99.90;;;;;;5098071;28;25103;-75
2023/01/24 12:33:34;;;;;;;17.25;7.82;;;2.10;99.90;;;;;;5097679;28;25050;-75
2023/01/24 12:36:16;;;;;;;13.00;7.00;;;2.20;99.90;;;;;;5098133;28;25122;-75
2023/01/24 12:38:48;;;;;;;16.95;7.63;;;2.20;99.90;;;;;;5097591;28;25139;-75
2023/01/24 12:41:31;;;;;;;18.25;8.27;;;2.20;99.90;;;;;;5098104;28;25124;-75
2023/01/24 12:44:33;;;;;;;18.52;9.10;;;2.20;99.90;;;;;;5097448;28;25056;-75
2023/01/24 12:47:19;;;;;;;18.20;8.75;;;2.20;99.90;;;;;;5079611;28;25078;-75
2023/01/24 12:50:15;;;;;;;14.35;7.82;;;2.20;99.90;;;;;;5097678;28;25131;-75
2023/01/24 12:52:57;;;;;;;15.25;8.40;;;2.20;99.90;;;;;;5097683;28;25167;-75
2023/01/24 12:55:48;;;;;;;17.95;8.15;;;2.20;99.90;;;;;;5079301;28;25052;-75
2023/01/24 12:58:42;;;;;;;15.80;7.80;;;2.20;99.90;;;;;;5097494;28;25064;-75
2023/01/24 13:01:22;;;;;;;17.23;8.20;;;2.10;99.90;;;;;;5079243;28;25042;-75
2023/01/24 13:04:10;;;;;;;15.70;7.70;;;2.10;99.90;;;;;;5097398;28;25122;-75
2023/01/24 13:06:51;;;;;;;15.50;7.50;;;2.00;99.90;;;;;;5097570;28;25064;-75
2023/01/24 13:09:31;;;;;;;14.98;8.05;;;2.00;99.90;;;;;;5097562;28;25057;-75
2023/01/24 13:11:59;;;;;;;16.92;7.72;;;2.00;99.90;;;;;;5097299;28;25068;-75
2023/01/24 13:14:41;;;;;;;13.35;6.90;;;2.00;99.90;;;;;;5097251;28;25069;-75
2023/01/24 13:18:00;;;;;;;14.60;7.70;;;2.00;99.90;;;;;;5097082;28;25066;-75
2023/01/24 13:20:48;;;;;;;15.23;7.32;;;2.00;99.90;;;;;;5092806;28;25114;-75
2023/01/24 13:24:05;;;;;;;14.52;7.20;;;2.00;99.90;;;;;;5096838;28;25055;-75
2023/01/24 13:26:47;;;;;;;15.40;8.18;;;2.00;99.90;;;;;;5088964;28;25071;-75
2023/01/24 13:29:27;;;;;;;16.85;7.75;;;1.90;99.90;;;;;;5096778;28;25064;-75
2023/01/24 13:32:12;;;;;;;15.63;7.65;;;1.90;99.90;;;;;;5097253;28;25093;-75
2023/01/24 13:34:50;;;;;;;15.90;7.75;;;2.00;99.90;;;;;;5096711;28;25057;-75
2023/01/24 13:37:26;;;;;;;15.43;8.20;;;1.90;99.90;;;;;;5096680;28;25138;-75
2023/01/24 13:40:19;;;;;;;15.50;8.80;;;1.90;99.90;;;;;;5075163;28;25131;-75
2023/01/24 13:42:48;;;;;;;19.30;9.18;;;1.90;99.90;;;;;;5076624;28;25096;-75
2023/01/24 13:45:45;;;;;;;17.40;8.73;;;1.90;99.90;;;;;;5075756;28;25107;-75
2023/01/24 13:48:42;;;;;;;13.00;7.55;;;1.80;99.90;;;;;;5075954;28;25051;-75
2023/01/24 13:51:33;;;;;;;16.98;8.30;;;1.80;99.90;;;;;;5076754;28;25085;-75
2023/01/24 13:54:37;;;;;;;20.73;8.65;;;1.80;99.90;;;;;;5065322;28;25074;-75
2023/01/24 13:57:11;;;;;;;15.73;7.47;;;1.80;99.90;;;;;;5076317;28;25061;-75